Grand Blanc, MI (48439)

8:03 AM EST on February 09, 2016 (GMT -0500)
Creekside Village | | Change Station
CLOSE
Current Station
Personal Weather Station
Location: Grand Blanc, MI
Elevation: 886 ft
Nearby Weather Stations

Elev 886 ft 42.90 °N, 83.62 °W | Updated 5 minutes ago

Snow
Snow
26.8 °F
Feels Like 27 °F
N
0.0
Wind Variable Wind from NW

Today
High -- | Low -- °F
--% Chance of Precip.
Yesterday
High -- | Low -- °F
Precip. -- in
Pressure 29.59 in
Visibility 0.8 miles
Clouds Few 800 ft
Overcast 1200 ft
Windchill 27 °F
Dew Point 26 °F
Humidity 96%
Rainfall 0.00 in
Snow Depth Not available.
7:40 AM 5:57 PM
New Moon, 1% visible
METAR KFNT 091253Z 30009KT 3/4SM R09/4500V5500FT -SN FEW008 OVC012 M02/M04 A2956 RMK AO2 SLP018 P0003 T10171044 $
Pressure 29.59 in
Visibility 0.8 miles
Clouds Few 800 ft
Overcast 1200 ft
Windchill 27 °F
Dew Point 26 °F
Humidity 96%
Rainfall 0.00 in
Snow Depth Not available.
7:40 AM 5:57 PM
New Moon, 1% visible
METAR KFNT 091253Z 30009KT 3/4SM R09/4500V5500FT -SN FEW008 OVC012 M02/M04 A2956 RMK AO2 SLP018 P0003 T10171044 $

10-Day Weather Forecast

Almanac

Astronomy

Feb. 09, 2016 Rise Set
Actual Time
Civil Twilight
Nautical Twilight
Astronomical Twilight
Moon
Length of Visible Light
Length of Day
Tomorrow will be .
, % of the Moon is Illuminated

Today's Extremes

State Highs State Lows

Community

WunderPhotos

Upload Photos

1,891,589 photos uploaded!

WunderBlog® & News

Nearby

Air Quality

  Air Quality AQ Index Pollutant
Not available.

Snow Depth

Station Depth Elevation

Earthquake Activity

City Distance Mag. Time & Date
Minimum magnitude displayed is 2.5.

Coastal Water Temperatures

Place Temperature

Stations

Nearby Weather Stations

Station Location Temp. Windchill Dew Point Humidity Wind Precip. Elev Updated Type
                   

Watches & Warnings

There are currently no watches in effect.